EET,Max TemperatureF,Mean TemperatureF,Min TemperatureF,Max Dew PointF,MeanDew PointF,Min DewpointF,Max Humidity, Mean Humidity, Min Humidity, Max Sea Level PressureIn, Mean Sea Level PressureIn, Min Sea Level PressureIn, Max VisibilityMiles, Mean VisibilityMiles, Min VisibilityMiles, Max Wind SpeedMPH, Mean Wind SpeedMPH, Max Gust SpeedMPH,PrecipitationIn, CloudCover, Events, WindDirDegrees
2012-12-1,61,59,57,59,56,52,100,89,64,29.98,29.93,29.89,6,6,2,20,6,,0.75,6,Rain-Thunderstorm,216
2012-12-2,66,62,57,59,55,48,100,80,52,30.05,29.91,29.59,6,6,5,9,7,,0.01,5,Rain,157
2012-12-3,62,58,51,57,50,48,100,72,52,29.68,29.59,29.42,6,6,2,25,15,39,0.01,5,Rain-Thunderstorm,210
2012-12-4,42,40,37,50,38,32,94,83,64,29.89,29.68,29.42,6,6,4,26,15,30,0.24,5,Rain-Thunderstorm,303
2012-12-5,55,46,38,43,37,32,87,60,44,29.86,29.70,29.53,12,6,2,16,10,,0.12,4,Rain,172
2012-12-6,51,48,44,48,42,39,94,81,60,29.83,29.70,29.53,6,5,2,26,15,34,0.24,6,Rain-Thunderstorm,6
2012-12-7,48,45,41,43,39,35,93,79,59,30.04,29.88,29.80,12,6,5,18,10,24,0.08,6,Rain,16
2012-12-8,51,46,41,39,36,32,87,64,46,30.10,30.03,29.95,6,6,6,16,7,,0.00,5,Rain,105
2012-12-9,60,54,49,52,40,32,94,58,33,29.92,29.76,29.65,6,6,3,22,16,,0.08,5,Rain,133
2012-12-10,51,46,42,50,44,37,100,88,76,29.83,29.70,29.65,6,6,4,22,11,,0.08,6,Rain,339
2012-12-11,55,46,38,46,38,32,82,68,53,29.95,29.83,29.68,6,6,4,23,9,36,0.12,5,Rain,89
2012-12-12,46,42,37,48,31,21,88,59,30,30.12,29.94,29.74,6,6,6,18,12,,0.00,4,Rain,280
2012-12-13,43,39,35,28,26,21,70,57,43,30.42,30.27,30.12,6,6,6,13,6,,0.00,4,,352
2012-12-14,47,38,29,28,25,21,86,58,28,30.45,30.42,30.39,6,6,6,10,7,,0.00,2,,29
2012-12-15,49,41,33,32,28,23,81,56,29,30.42,30.35,30.24,6,6,6,8,5,,0.00,,,47
2012-12-16,49,44,38,46,36,30,93,68,49,30.24,30.12,30.01,6,6,4,16,7,,0.02,6,Rain,188
2012-12-17,52,49,46,49,47,43,100,94,82,30.01,29.90,29.83,6,4,1,15,6,,0.31,7,Rain,47
2012-12-18,53,49,45,46,43,41,93,75,53,29.92,29.81,29.65,6,6,6,18,10,30,0.01,6,Rain,53
2012-12-19,55,44,33,48,43,30,100,88,72,29.77,29.65,29.59,6,6,4,30,15,43,0.03,6,Rain,354
2012-12-20,32,31,30,32,30,28,100,95,85,29.98,29.86,29.77,6,3,1,34,24,46,0.08,6,Rain-Snow,323
2012-12-21,36,33,30,32,30,28,100,89,73,30.05,30.01,29.98,6,3,1,21,13,,0.00,6,Snow,341
2012-12-22,37,34,32,32,30,27,87,81,71,30.17,30.09,30.04,6,5,4,18,16,,0.00,7,,355
2012-12-23,44,40,36,38,36,32,100,81,68,30.21,30.15,30.12,12,6,4,23,16,,0.00,7,Rain-Snow,22
2012-12-24,50,44,37,36,33,32,87,63,47,30.27,30.24,30.18,6,6,4,14,9,,0.00,4,,64
2012-12-25,51,44,36,45,40,34,93,77,51,30.30,30.26,30.21,6,5,4,12,5,,0.00,,,230
2012-12-26,56,52,47,43,42,39,82,67,43,30.22,30.17,30.12,6,6,6,14,10,,0.00,,,241
2012-12-27,57,53,49,46,44,41,82,70,56,30.15,30.10,30.06,6,6,6,13,7,,0.00,6,,226
2012-12-28,59,55,51,48,45,45,82,68,53,30.06,30.04,30.01,6,6,6,12,5,,0.00,4,,186
2012-12-29,51,48,46,48,45,41,100,89,76,30.30,30.18,30.04,6,5,2,25,18,34,0.00,6,Rain,9
2012-12-30,52,48,45,45,41,37,93,77,51,30.33,30.29,30.24,6,6,6,17,14,,0.00,5,,43
2012-12-31,51,48,45,41,40,37,87,73,62,30.26,30.22,30.21,6,6,6,16,12,,0.00,4,,27